Aérodrome :
LOGIN :

S'inscrire | Disclaimer

   EN    FR    IT 

 










Légende :    VFR   VFR Marginal   IFR   IFR Intensif   IFR Très Intensif
Visi : 
Plafond : 
>= 8 km
>= 3000ft
5 à 8 km
1000 à 3000 ft
1500m à 5 km
500 à 1000 ft
800 à 1500m
200 à 500 ft
< 800m
< 200 ft
Symboles :   Orages  Brouillard  Fortes neiges  Fortes précipitations  Vent > 20 kt
SIGMETs :   Divers  Orages  Givrage  Turbulence  Onde Orograph.  Cendres Volcan.






- Altitude de l'aérodrome : 75 ft
- Code IATA : YEO


EGDY - RNAS Yeovilton

DERNIER METAR :
  • 011019Z 06009KT 5000 HZ OVC010 06/04 Q1030 BECMG 7000 HZ SCT022 RMK GRN BECMG WHT

METARs EXPIRÉS :
  • 010950Z 07010KT 4500 HZ OVC010 06/04 Q1031 BECMG 7000 HZ SCT022 RMK GRN BECMG WHT
  • 010919Z 07009KT 4000 HZ OVC007 05/04 Q1031 BECMG 7000 HZ SCT022 RMK GRN BECMG WHT
  • 010850Z 07010KT 4000 HZ BKN007 05/04 Q1031 BECMG 7000 HZ SCT022 RMK GRN BECMG WHT
  • 010819Z 08012KT 3000 HZ BKN006 05/04 Q1031 BECMG 4000 HZ BKN008 RMK YLO1 BECMG GRN
  • 010750Z 08008KT 2000 HZ BKN006 05/04 Q1031 BECMG 4000 HZ BKN008 RMK YLO2 BECMG GRN
  • 010721Z 07010KT 1500 BR OVC005 05/04 Q1030 BECMG 0500 FG SCT000 RMK AMB BECMG RED

TAF TAF EGDY
Valide du 01 à 09h jusqu'au 01 à 18h UTC


010817Z 0109/0118 08008KT 3000 HZ SCT006
BECMG 0109/0111 8000 HZ SCT022
BECMG 0111/0113 9999 NSW FEW022



MET'MAP, la Météo Aéronautique d'un coup d'oeil ! - Copyright ORBIFLY Décembre 2007 - Disclaimer

ORBIFLY MET'MAP TEAM :

Programmation & Développement : Alexandra Zaïnal
Sur une idée originale de : Baudouin d'Aumeries
Assistance à la programmation : Marc-Olivier Méhu
Soutien technique & logistique : Manuel Goepfert

Contact : metmap@orbifly.com




SOURCES & CREDITS :

   NOAA